sensor_id;sensor_type;location;lat;lon;timestamp;temperature;humidity
20479;DHT22;10398;52.490;13.434;2022-09-01T00:01:05;19.10;99.90
20479;DHT22;10398;52.490;13.434;2022-09-01T00:03:35;19.10;99.90
20479;DHT22;10398;52.490;13.434;2022-09-01T00:06:01;19.10;99.90
20479;DHT22;10398;52.490;13.434;2022-09-01T00:08:28;19.10;99.90
20479;DHT22;10398;52.490;13.434;2022-09-01T00:10:54;19.10;99.90
20479;DHT22;10398;52.490;13.434;2022-09-01T00:13:19;19.10;99.90
20479;DHT22;10398;52.490;13.434;2022-09-01T00:15:45;19.10;99.90
20479;DHT22;10398;52.490;13.434;2022-09-01T00:18:11;19.10;99.90
20479;DHT22;10398;52.490;13.434;2022-09-01T00:20:37;19.00;99.90
20479;DHT22;10398;52.490;13.434;2022-09-01T00:23:03;19.00;99.90
20479;DHT22;10398;52.490;13.434;2022-09-01T00:25:29;19.00;99.90
20479;DHT22;10398;52.490;13.434;2022-09-01T00:27:55;19.10;99.90
20479;DHT22;10398;52.490;13.434;2022-09-01T00:30:25;19.00;99.90
20479;DHT22;10398;52.490;13.434;2022-09-01T00:32:50;19.00;99.90
20479;DHT22;10398;52.490;13.434;2022-09-01T00:35:18;18.90;99.90
20479;DHT22;10398;52.490;13.434;2022-09-01T00:37:43;18.90;99.90
20479;DHT22;10398;52.490;13.434;2022-09-01T00:40:11;18.90;99.90
20479;DHT22;10398;52.490;13.434;2022-09-01T00:42:38;18.90;99.90
20479;DHT22;10398;52.490;13.434;2022-09-01T00:45:06;18.90;99.90
20479;DHT22;10398;52.490;13.434;2022-09-01T00:47:33;19.00;99.90
20479;DHT22;10398;52.490;13.434;2022-09-01T00:50:00;18.90;99.90
20479;DHT22;10398;52.490;13.434;2022-09-01T00:52:33;18.90;99.90
20479;DHT22;10398;52.490;13.434;2022-09-01T00:55:05;18.90;99.90
20479;DHT22;10398;52.490;13.434;2022-09-01T00:57:32;18.90;99.90
20479;DHT22;10398;52.490;13.434;2022-09-01T01:00:12;18.90;99.90
20479;DHT22;10398;52.490;13.434;2022-09-01T01:02:41;18.90;99.90
20479;DHT22;10398;52.490;13.434;2022-09-01T01:05:11;18.90;99.90
20479;DHT22;10398;52.490;13.434;2022-09-01T01:07:37;18.90;99.90
20479;DHT22;10398;52.490;13.434;2022-09-01T01:10:10;18.80;99.90
20479;DHT22;10398;52.490;13.434;2022-09-01T01:12:38;18.80;99.90
20479;DHT22;10398;52.490;13.434;2022-09-01T01:15:06;18.90;99.90
20479;DHT22;10398;52.490;13.434;2022-09-01T01:17:33;18.80;99.90
20479;DHT22;10398;52.490;13.434;2022-09-01T01:19:59;18.80;99.90
20479;DHT22;10398;52.490;13.434;2022-09-01T01:25:28;18.70;99.90
20479;DHT22;10398;52.490;13.434;2022-09-01T01:28:08;18.70;99.90
20479;DHT22;10398;52.490;13.434;2022-09-01T01:30:35;18.70;99.90
20479;DHT22;10398;52.490;13.434;2022-09-01T01:33:04;18.70;99.90
20479;DHT22;10398;52.490;13.434;2022-09-01T01:35:31;18.60;99.90
20479;DHT22;10398;52.490;13.434;2022-09-01T01:37:59;18.70;99.90
20479;DHT22;10398;52.490;13.434;2022-09-01T01:40:27;18.70;99.90
20479;DHT22;10398;52.490;13.434;2022-09-01T01:42:54;18.70;99.90
20479;DHT22;10398;52.490;13.434;2022-09-01T01:45:23;18.70;99.90
20479;DHT22;10398;52.490;13.434;2022-09-01T01:47:51;18.70;99.90
20479;DHT22;10398;52.490;13.434;2022-09-01T01:50:36;18.70;99.90
20479;DHT22;10398;52.490;13.434;2022-09-01T01:53:05;18.60;99.90
20479;DHT22;10398;52.490;13.434;2022-09-01T01:55:31;18.60;99.90
20479;DHT22;10398;52.490;13.434;2022-09-01T01:57:58;18.60;99.90
20479;DHT22;10398;52.490;13.434;2022-09-01T02:00:29;18.70;99.90
20479;DHT22;10398;52.490;13.434;2022-09-01T02:02:57;18.70;99.90
20479;DHT22;10398;52.490;13.434;2022-09-01T02:05:27;18.60;99.90
20479;DHT22;10398;52.490;13.434;2022-09-01T02:07:58;18.60;99.90
20479;DHT22;10398;52.490;13.434;2022-09-01T02:10:26;18.50;99.90
20479;DHT22;10398;52.490;13.434;2022-09-01T02:12:52;18.50;99.90
20479;DHT22;10398;52.490;13.434;2022-09-01T02:15:18;18.50;99.90
20479;DHT22;10398;52.490;13.434;2022-09-01T02:17:44;18.50;99.90
20479;DHT22;10398;52.490;13.434;2022-09-01T02:20:10;18.50;99.90
20479;DHT22;10398;52.490;13.434;2022-09-01T02:22:36;18.50;99.90
20479;DHT22;10398;52.490;13.434;2022-09-01T02:25:05;18.50;99.90
20479;DHT22;10398;52.490;13.434;2022-09-01T02:27:31;18.60;99.90
20479;DHT22;10398;52.490;13.434;2022-09-01T02:30:02;18.50;99.90
20479;DHT22;10398;52.490;13.434;2022-09-01T02:32:27;18.40;99.90
20479;DHT22;10398;52.490;13.434;2022-09-01T02:34:53;18.40;99.90
20479;DHT22;10398;52.490;13.434;2022-09-01T02:37:25;18.30;99.90
20479;DHT22;10398;52.490;13.434;2022-09-01T02:39:51;18.30;99.90
20479;DHT22;10398;52.490;13.434;2022-09-01T02:42:23;18.30;99.90
20479;DHT22;10398;52.490;13.434;2022-09-01T02:44:55;18.20;99.90
20479;DHT22;10398;52.490;13.434;2022-09-01T02:47:21;18.10;99.90
20479;DHT22;10398;52.490;13.434;2022-09-01T02:49:51;18.10;99.90
20479;DHT22;10398;52.490;13.434;2022-09-01T02:52:17;18.00;99.90
20479;DHT22;10398;52.490;13.434;2022-09-01T02:54:46;18.10;99.90
20479;DHT22;10398;52.490;13.434;2022-09-01T02:57:15;18.10;99.90
20479;DHT22;10398;52.490;13.434;2022-09-01T02:59:41;18.10;99.90
20479;DHT22;10398;52.490;13.434;2022-09-01T03:02:08;18.10;99.90
20479;DHT22;10398;52.490;13.434;2022-09-01T03:04:35;18.10;99.90
20479;DHT22;10398;52.490;13.434;2022-09-01T03:07:04;18.10;99.90
20479;DHT22;10398;52.490;13.434;2022-09-01T03:09:30;18.00;99.90
20479;DHT22;10398;52.490;13.434;2022-09-01T03:11:57;17.80;99.90
20479;DHT22;10398;52.490;13.434;2022-09-01T03:14:22;17.80;99.90
20479;DHT22;10398;52.490;13.434;2022-09-01T03:16:48;17.70;99.90
20479;DHT22;10398;52.490;13.434;2022-09-01T03:19:14;17.60;99.90
20479;DHT22;10398;52.490;13.434;2022-09-01T03:21:42;17.50;99.90
20479;DHT22;10398;52.490;13.434;2022-09-01T03:24:10;17.60;99.90
20479;DHT22;10398;52.490;13.434;2022-09-01T03:26:40;17.50;99.90
20479;DHT22;10398;52.490;13.434;2022-09-01T03:29:06;17.50;99.90
20479;DHT22;10398;52.490;13.434;2022-09-01T03:31:33;17.50;99.90
20479;DHT22;10398;52.490;13.434;2022-09-01T03:33:59;17.40;99.90
20479;DHT22;10398;52.490;13.434;2022-09-01T03:36:29;17.30;99.90
20479;DHT22;10398;52.490;13.434;2022-09-01T03:38:59;17.30;99.90
20479;DHT22;10398;52.490;13.434;2022-09-01T03:41:28;17.30;99.90
20479;DHT22;10398;52.490;13.434;2022-09-01T03:43:55;17.30;99.90
20479;DHT22;10398;52.490;13.434;2022-09-01T03:46:23;17.20;99.90
20479;DHT22;10398;52.490;13.434;2022-09-01T03:48:53;17.20;99.90
20479;DHT22;10398;52.490;13.434;2022-09-01T03:51:20;17.10;99.90
20479;DHT22;10398;52.490;13.434;2022-09-01T03:53:47;17.00;99.90
20479;DHT22;10398;52.490;13.434;2022-09-01T03:56:12;17.00;99.90
20479;DHT22;10398;52.490;13.434;2022-09-01T03:58:40;17.00;99.90
20479;DHT22;10398;52.490;13.434;2022-09-01T04:01:11;16.90;99.90
20479;DHT22;10398;52.490;13.434;2022-09-01T04:03:38;16.90;99.90
20479;DHT22;10398;52.490;13.434;2022-09-01T04:06:07;16.90;99.90
20479;DHT22;10398;52.490;13.434;2022-09-01T04:08:34;16.90;99.90
20479;DHT22;10398;52.490;13.434;2022-09-01T04:11:02;16.80;99.90
20479;DHT22;10398;52.490;13.434;2022-09-01T04:13:39;16.80;99.90
20479;DHT22;10398;52.490;13.434;2022-09-01T04:16:15;16.80;99.90
20479;DHT22;10398;52.490;13.434;2022-09-01T04:19:01;16.80;99.90
20479;DHT22;10398;52.490;13.434;2022-09-01T04:21:39;16.90;99.90
20479;DHT22;10398;52.490;13.434;2022-09-01T04:24:05;17.00;99.90
20479;DHT22;10398;52.490;13.434;2022-09-01T04:26:33;17.00;99.90
20479;DHT22;10398;52.490;13.434;2022-09-01T04:28:59;17.00;99.90
20479;DHT22;10398;52.490;13.434;2022-09-01T04:31:25;16.90;99.90
20479;DHT22;10398;52.490;13.434;2022-09-01T04:33:51;16.90;99.90
20479;DHT22;10398;52.490;13.434;2022-09-01T04:36:29;16.90;99.90
20479;DHT22;10398;52.490;13.434;2022-09-01T04:39:02;16.80;99.90
20479;DHT22;10398;52.490;13.434;2022-09-01T04:41:35;16.80;99.90
20479;DHT22;10398;52.490;13.434;2022-09-01T04:44:03;16.70;99.90
20479;DHT22;10398;52.490;13.434;2022-09-01T04:46:31;16.80;99.90
20479;DHT22;10398;52.490;13.434;2022-09-01T04:49:03;16.80;99.90
20479;DHT22;10398;52.490;13.434;2022-09-01T04:51:43;16.70;99.90
20479;DHT22;10398;52.490;13.434;2022-09-01T04:54:11;16.80;99.90
20479;DHT22;10398;52.490;13.434;2022-09-01T04:56:40;16.70;99.90
20479;DHT22;10398;52.490;13.434;2022-09-01T04:59:06;16.70;99.90
20479;DHT22;10398;52.490;13.434;2022-09-01T05:01:36;16.80;99.90
20479;DHT22;10398;52.490;13.434;2022-09-01T05:04:20;16.70;99.90
20479;DHT22;10398;52.490;13.434;2022-09-01T05:06:52;16.70;99.90
20479;DHT22;10398;52.490;13.434;2022-09-01T05:09:30;16.70;99.90
20479;DHT22;10398;52.490;13.434;2022-09-01T05:11:57;16.80;99.90
20479;DHT22;10398;52.490;13.434;2022-09-01T05:14:37;16.80;99.90
20479;DHT22;10398;52.490;13.434;2022-09-01T05:17:10;16.70;99.90
20479;DHT22;10398;52.490;13.434;2022-09-01T05:19:42;16.80;99.90
20479;DHT22;10398;52.490;13.434;2022-09-01T05:22:09;16.70;99.90
20479;DHT22;10398;52.490;13.434;2022-09-01T05:24:36;16.70;99.90
20479;DHT22;10398;52.490;13.434;2022-09-01T05:27:04;16.70;99.90
20479;DHT22;10398;52.490;13.434;2022-09-01T05:29:30;16.80;99.90
20479;DHT22;10398;52.490;13.434;2022-09-01T05:31:56;16.80;99.90
20479;DHT22;10398;52.490;13.434;2022-09-01T05:34:24;16.70;99.90
20479;DHT22;10398;52.490;13.434;2022-09-01T05:36:59;16.70;99.90
20479;DHT22;10398;52.490;13.434;2022-09-01T05:39:26;16.70;99.90
20479;DHT22;10398;52.490;13.434;2022-09-01T05:41:51;16.70;99.90
20479;DHT22;10398;52.490;13.434;2022-09-01T05:44:19;16.80;99.90
20479;DHT22;10398;52.490;13.434;2022-09-01T05:46:47;16.90;99.90
20479;DHT22;10398;52.490;13.434;2022-09-01T05:49:14;16.90;99.90
20479;DHT22;10398;52.490;13.434;2022-09-01T05:51:43;17.00;99.90
20479;DHT22;10398;52.490;13.434;2022-09-01T05:54:09;17.00;99.90
20479;DHT22;10398;52.490;13.434;2022-09-01T05:56:36;17.00;99.90
20479;DHT22;10398;52.490;13.434;2022-09-01T05:59:04;17.10;99.90
20479;DHT22;10398;52.490;13.434;2022-09-01T06:01:30;17.20;99.90
20479;DHT22;10398;52.490;13.434;2022-09-01T06:03:59;17.20;99.90
20479;DHT22;10398;52.490;13.434;2022-09-01T06:06:32;17.20;99.90
20479;DHT22;10398;52.490;13.434;2022-09-01T06:09:00;17.10;99.90
20479;DHT22;10398;52.490;13.434;2022-09-01T06:11:26;17.20;99.90
20479;DHT22;10398;52.490;13.434;2022-09-01T06:13:53;17.20;99.90
20479;DHT22;10398;52.490;13.434;2022-09-01T06:16:20;17.20;99.90
20479;DHT22;10398;52.490;13.434;2022-09-01T06:18:46;17.20;99.90
20479;DHT22;10398;52.490;13.434;2022-09-01T06:21:12;17.30;99.90
20479;DHT22;10398;52.490;13.434;2022-09-01T06:23:44;17.20;99.90
20479;DHT22;10398;52.490;13.434;2022-09-01T06:26:28;17.20;99.90
20479;DHT22;10398;52.490;13.434;2022-09-01T06:29:00;17.20;99.90
20479;DHT22;10398;52.490;13.434;2022-09-01T06:31:30;17.30;99.90
20479;DHT22;10398;52.490;13.434;2022-09-01T06:34:01;17.30;99.90
20479;DHT22;10398;52.490;13.434;2022-09-01T06:36:28;17.20;99.90
20479;DHT22;10398;52.490;13.434;2022-09-01T06:38:57;17.20;99.90
20479;DHT22;10398;52.490;13.434;2022-09-01T06:41:26;17.20;99.90
20479;DHT22;10398;52.490;13.434;2022-09-01T06:43:52;17.20;99.90
20479;DHT22;10398;52.490;13.434;2022-09-01T06:46:23;17.20;99.90
20479;DHT22;10398;52.490;13.434;2022-09-01T06:48:52;17.20;99.90
20479;DHT22;10398;52.490;13.434;2022-09-01T06:51:20;17.20;99.90
20479;DHT22;10398;52.490;13.434;2022-09-01T06:53:48;17.20;99.90
20479;DHT22;10398;52.490;13.434;2022-09-01T06:56:26;17.30;99.90
20479;DHT22;10398;52.490;13.434;2022-09-01T06:58:54;17.30;99.90
20479;DHT22;10398;52.490;13.434;2022-09-01T07:01:21;17.30;99.90
20479;DHT22;10398;52.490;13.434;2022-09-01T07:03:50;17.30;99.90
20479;DHT22;10398;52.490;13.434;2022-09-01T07:06:18;17.30;99.90
20479;DHT22;10398;52.490;13.434;2022-09-01T07:08:44;17.40;99.90
20479;DHT22;10398;52.490;13.434;2022-09-01T07:11:19;17.40;99.90
20479;DHT22;10398;52.490;13.434;2022-09-01T07:13:50;17.50;99.90
20479;DHT22;10398;52.490;13.434;2022-09-01T07:16:19;17.50;99.90
20479;DHT22;10398;52.490;13.434;2022-09-01T07:18:48;17.60;99.90
20479;DHT22;10398;52.490;13.434;2022-09-01T07:21:14;17.60;99.90
20479;DHT22;10398;52.490;13.434;2022-09-01T07:23:39;17.70;99.90
20479;DHT22;10398;52.490;13.434;2022-09-01T07:26:08;17.80;99.90
20479;DHT22;10398;52.490;13.434;2022-09-01T07:28:34;17.90;99.90
20479;DHT22;10398;52.490;13.434;2022-09-01T07:31:00;18.10;99.90
20479;DHT22;10398;52.490;13.434;2022-09-01T07:33:28;18.30;99.90
20479;DHT22;10398;52.490;13.434;2022-09-01T07:35:56;18.30;99.90
20479;DHT22;10398;52.490;13.434;2022-09-01T07:38:23;18.30;99.90
20479;DHT22;10398;52.490;13.434;2022-09-01T07:40:50;18.30;99.90
20479;DHT22;10398;52.490;13.434;2022-09-01T07:43:21;18.40;99.90
20479;DHT22;10398;52.490;13.434;2022-09-01T07:45:52;18.40;99.90
20479;DHT22;10398;52.490;13.434;2022-09-01T07:48:21;18.40;99.90
20479;DHT22;10398;52.490;13.434;2022-09-01T07:50:49;18.40;99.90
20479;DHT22;10398;52.490;13.434;2022-09-01T07:53:21;18.50;99.90
20479;DHT22;10398;52.490;13.434;2022-09-01T07:55:49;18.50;99.90
20479;DHT22;10398;52.490;13.434;2022-09-01T07:58:17;18.50;99.90
20479;DHT22;10398;52.490;13.434;2022-09-01T08:00:43;18.60;99.90
20479;DHT22;10398;52.490;13.434;2022-09-01T08:03:10;18.70;99.90
20479;DHT22;10398;52.490;13.434;2022-09-01T08:05:36;18.80;99.90
20479;DHT22;10398;52.490;13.434;2022-09-01T08:08:02;18.80;99.90
20479;DHT22;10398;52.490;13.434;2022-09-01T08:10:27;18.90;99.90
20479;DHT22;10398;52.490;13.434;2022-09-01T08:12:54;19.00;99.90
20479;DHT22;10398;52.490;13.434;2022-09-01T08:15:21;19.00;99.90
20479;DHT22;10398;52.490;13.434;2022-09-01T08:17:46;19.20;99.90
20479;DHT22;10398;52.490;13.434;2022-09-01T08:20:12;19.20;99.90
20479;DHT22;10398;52.490;13.434;2022-09-01T08:22:39;19.40;99.90
20479;DHT22;10398;52.490;13.434;2022-09-01T08:25:09;19.40;99.90
20479;DHT22;10398;52.490;13.434;2022-09-01T08:27:36;19.40;99.90
20479;DHT22;10398;52.490;13.434;2022-09-01T08:30:07;19.50;99.90
20479;DHT22;10398;52.490;13.434;2022-09-01T08:32:34;19.50;99.90
20479;DHT22;10398;52.490;13.434;2022-09-01T08:35:00;19.50;99.90
20479;DHT22;10398;52.490;13.434;2022-09-01T08:37:26;19.60;99.90
20479;DHT22;10398;52.490;13.434;2022-09-01T08:39:52;19.60;99.90
20479;DHT22;10398;52.490;13.434;2022-09-01T08:45:20;19.80;99.90
20479;DHT22;10398;52.490;13.434;2022-09-01T08:47:50;19.90;99.90
20479;DHT22;10398;52.490;13.434;2022-09-01T08:50:18;20.00;99.90
20479;DHT22;10398;52.490;13.434;2022-09-01T08:52:49;20.10;99.90
20479;DHT22;10398;52.490;13.434;2022-09-01T08:55:35;20.30;99.90
20479;DHT22;10398;52.490;13.434;2022-09-01T08:58:03;20.30;99.90
20479;DHT22;10398;52.490;13.434;2022-09-01T09:00:36;20.40;99.90
20479;DHT22;10398;52.490;13.434;2022-09-01T09:05:40;20.60;99.90
20479;DHT22;10398;52.490;13.434;2022-09-01T09:11:45;20.70;99.90
20479;DHT22;10398;52.490;13.434;2022-09-01T09:16:58;20.90;99.90
20479;DHT22;10398;52.490;13.434;2022-09-01T09:19:36;21.00;99.90
20479;DHT22;10398;52.490;13.434;2022-09-01T09:22:07;21.00;99.90
20479;DHT22;10398;52.490;13.434;2022-09-01T09:24:53;21.10;99.90
20479;DHT22;10398;52.490;13.434;2022-09-01T09:27:28;21.20;99.90
20479;DHT22;10398;52.490;13.434;2022-09-01T09:29:57;21.30;99.90
20479;DHT22;10398;52.490;13.434;2022-09-01T09:35:22;21.60;99.90
20479;DHT22;10398;52.490;13.434;2022-09-01T09:37:48;21.70;99.90
20479;DHT22;10398;52.490;13.434;2022-09-01T09:43:04;21.90;99.90
20479;DHT22;10398;52.490;13.434;2022-09-01T09:50:48;21.90;99.90
20479;DHT22;10398;52.490;13.434;2022-09-01T09:58:25;22.10;99.90
20479;DHT22;10398;52.490;13.434;2022-09-01T10:01:10;22.10;99.90
20479;DHT22;10398;52.490;13.434;2022-09-01T10:03:49;22.00;99.90
20479;DHT22;10398;52.490;13.434;2022-09-01T10:06:33;21.90;99.90
20479;DHT22;10398;52.490;13.434;2022-09-01T10:09:05;21.80;99.90
20479;DHT22;10398;52.490;13.434;2022-09-01T10:11:38;21.70;99.90
20479;DHT22;10398;52.490;13.434;2022-09-01T10:14:06;21.50;99.90
20479;DHT22;10398;52.490;13.434;2022-09-01T10:16:36;21.40;99.90
20479;DHT22;10398;52.490;13.434;2022-09-01T10:19:05;21.30;99.90
20479;DHT22;10398;52.490;13.434;2022-09-01T10:21:34;21.40;99.90
20479;DHT22;10398;52.490;13.434;2022-09-01T10:24:15;21.40;99.90
20479;DHT22;10398;52.490;13.434;2022-09-01T10:26:43;21.60;99.90
20479;DHT22;10398;52.490;13.434;2022-09-01T10:29:18;21.60;99.90
20479;DHT22;10398;52.490;13.434;2022-09-01T10:31:45;21.60;99.90
20479;DHT22;10398;52.490;13.434;2022-09-01T10:34:14;21.80;99.90
20479;DHT22;10398;52.490;13.434;2022-09-01T10:36:43;22.00;99.90
20479;DHT22;10398;52.490;13.434;2022-09-01T10:39:14;22.20;99.90
20479;DHT22;10398;52.490;13.434;2022-09-01T10:44:30;22.60;99.90
20479;DHT22;10398;52.490;13.434;2022-09-01T10:47:10;22.70;99.90
20479;DHT22;10398;52.490;13.434;2022-09-01T10:55:40;22.50;98.10
20479;DHT22;10398;52.490;13.434;2022-09-01T11:00:48;22.30;98.70
20479;DHT22;10398;52.490;13.434;2022-09-01T11:05:59;22.50;99.10
20479;DHT22;10398;52.490;13.434;2022-09-01T11:14:01;22.90;97.10
20479;DHT22;10398;52.490;13.434;2022-09-01T11:16:33;22.60;97.10
20479;DHT22;10398;52.490;13.434;2022-09-01T11:22:34;22.60;96.90
20479;DHT22;10398;52.490;13.434;2022-09-01T11:25:33;22.50;96.00
20479;DHT22;10398;52.490;13.434;2022-09-01T11:36:02;22.20;95.80
20479;DHT22;10398;52.490;13.434;2022-09-01T11:38:33;22.00;95.80
20479;DHT22;10398;52.490;13.434;2022-09-01T11:41:02;22.00;95.90
20479;DHT22;10398;52.490;13.434;2022-09-01T11:43:29;22.00;96.30
20479;DHT22;10398;52.490;13.434;2022-09-01T11:46:43;22.00;96.30
20479;DHT22;10398;52.490;13.434;2022-09-01T11:49:06;22.00;96.60
20479;DHT22;10398;52.490;13.434;2022-09-01T11:51:43;22.00;95.30
20479;DHT22;10398;52.490;13.434;2022-09-01T11:54:13;22.10;95.50
20479;DHT22;10398;52.490;13.434;2022-09-01T11:56:40;22.10;95.60
20479;DHT22;10398;52.490;13.434;2022-09-01T11:59:06;22.10;95.10
20479;DHT22;10398;52.490;13.434;2022-09-01T12:01:35;22.00;95.00
20479;DHT22;10398;52.490;13.434;2022-09-01T12:04:22;21.90;94.80
20479;DHT22;10398;52.490;13.434;2022-09-01T12:07:06;21.80;95.60
20479;DHT22;10398;52.490;13.434;2022-09-01T12:09:35;21.80;96.40
20479;DHT22;10398;52.490;13.434;2022-09-01T12:12:02;21.70;96.20
20479;DHT22;10398;52.490;13.434;2022-09-01T12:14:28;21.70;99.90
20479;DHT22;10398;52.490;13.434;2022-09-01T12:17:01;21.70;96.60
20479;DHT22;10398;52.490;13.434;2022-09-01T12:19:31;21.60;95.80
20479;DHT22;10398;52.490;13.434;2022-09-01T12:22:13;21.70;96.20
20479;DHT22;10398;52.490;13.434;2022-09-01T12:24:49;21.70;95.80
20479;DHT22;10398;52.490;13.434;2022-09-01T12:27:16;21.80;95.10
20479;DHT22;10398;52.490;13.434;2022-09-01T12:29:42;21.70;94.60
20479;DHT22;10398;52.490;13.434;2022-09-01T12:32:08;21.50;94.40
20479;DHT22;10398;52.490;13.434;2022-09-01T12:37:21;21.40;95.50
20479;DHT22;10398;52.490;13.434;2022-09-01T12:39:50;21.30;95.70
20479;DHT22;10398;52.490;13.434;2022-09-01T12:45:06;21.30;98.40
20479;DHT22;10398;52.490;13.434;2022-09-01T12:49:59;21.30;97.40
20479;DHT22;10398;52.490;13.434;2022-09-01T12:52:27;21.30;97.50
20479;DHT22;10398;52.490;13.434;2022-09-01T12:57:34;21.30;98.00
20479;DHT22;10398;52.490;13.434;2022-09-01T13:02:47;21.30;97.40
20479;DHT22;10398;52.490;13.434;2022-09-01T13:05:22;21.20;97.90
20479;DHT22;10398;52.490;13.434;2022-09-01T13:07:52;21.20;98.10
20479;DHT22;10398;52.490;13.434;2022-09-01T13:10:18;21.20;98.40
20479;DHT22;10398;52.490;13.434;2022-09-01T13:12:44;21.30;99.30
20479;DHT22;10398;52.490;13.434;2022-09-01T13:15:11;21.30;99.30
20479;DHT22;10398;52.490;13.434;2022-09-01T13:17:37;21.30;98.90
20479;DHT22;10398;52.490;13.434;2022-09-01T13:20:04;21.40;98.00
20479;DHT22;10398;52.490;13.434;2022-09-01T13:22:30;21.50;98.60
20479;DHT22;10398;52.490;13.434;2022-09-01T13:24:56;21.60;98.20
20479;DHT22;10398;52.490;13.434;2022-09-01T13:27:22;21.70;97.70
20479;DHT22;10398;52.490;13.434;2022-09-01T13:29:48;21.80;97.00
20479;DHT22;10398;52.490;13.434;2022-09-01T13:32:15;21.80;96.90
20479;DHT22;10398;52.490;13.434;2022-09-01T13:34:41;21.80;99.90
20479;DHT22;10398;52.490;13.434;2022-09-01T13:37:07;21.90;99.90
20479;DHT22;10398;52.490;13.434;2022-09-01T13:39:32;21.90;99.90
20479;DHT22;10398;52.490;13.434;2022-09-01T13:41:58;22.00;99.90
20479;DHT22;10398;52.490;13.434;2022-09-01T13:44:24;22.00;99.90
20479;DHT22;10398;52.490;13.434;2022-09-01T13:46:49;22.00;99.90
20479;DHT22;10398;52.490;13.434;2022-09-01T13:49:15;22.00;99.90
20479;DHT22;10398;52.490;13.434;2022-09-01T13:51:40;22.00;99.90
20479;DHT22;10398;52.490;13.434;2022-09-01T13:54:06;22.00;99.90
20479;DHT22;10398;52.490;13.434;2022-09-01T13:56:32;22.10;99.90
20479;DHT22;10398;52.490;13.434;2022-09-01T13:58:57;22.10;99.90
20479;DHT22;10398;52.490;13.434;2022-09-01T14:01:23;22.10;99.90
20479;DHT22;10398;52.490;13.434;2022-09-01T14:03:49;22.10;99.90
20479;DHT22;10398;52.490;13.434;2022-09-01T14:06:15;22.20;99.20
20479;DHT22;10398;52.490;13.434;2022-09-01T14:08:40;22.10;99.70
20479;DHT22;10398;52.490;13.434;2022-09-01T14:11:06;22.20;99.90
20479;DHT22;10398;52.490;13.434;2022-09-01T14:13:33;22.20;99.20
20479;DHT22;10398;52.490;13.434;2022-09-01T14:15:59;22.20;98.90
20479;DHT22;10398;52.490;13.434;2022-09-01T14:18:25;22.20;97.40
20479;DHT22;10398;52.490;13.434;2022-09-01T14:20:57;22.20;98.70
20479;DHT22;10398;52.490;13.434;2022-09-01T14:23:24;22.30;98.90
20479;DHT22;10398;52.490;13.434;2022-09-01T14:25:50;22.30;99.10
20479;DHT22;10398;52.490;13.434;2022-09-01T14:28:16;22.30;99.30
20479;DHT22;10398;52.490;13.434;2022-09-01T14:30:42;22.40;99.10
20479;DHT22;10398;52.490;13.434;2022-09-01T14:33:09;22.30;99.60
20479;DHT22;10398;52.490;13.434;2022-09-01T14:35:38;22.40;99.70
20479;DHT22;10398;52.490;13.434;2022-09-01T14:38:04;22.50;99.90
20479;DHT22;10398;52.490;13.434;2022-09-01T14:40:32;22.60;99.70
20479;DHT22;10398;52.490;13.434;2022-09-01T14:42:58;22.60;98.80
20479;DHT22;10398;52.490;13.434;2022-09-01T14:45:26;22.60;97.70
20479;DHT22;10398;52.490;13.434;2022-09-01T14:47:56;22.80;97.70
20479;DHT22;10398;52.490;13.434;2022-09-01T14:50:24;22.80;97.30
20479;DHT22;10398;52.490;13.434;2022-09-01T14:52:52;22.90;96.80
20479;DHT22;10398;52.490;13.434;2022-09-01T14:55:18;22.90;96.70
20479;DHT22;10398;52.490;13.434;2022-09-01T14:57:44;23.00;96.30
20479;DHT22;10398;52.490;13.434;2022-09-01T15:00:11;23.10;96.30
20479;DHT22;10398;52.490;13.434;2022-09-01T15:02:39;23.20;95.60
20479;DHT22;10398;52.490;13.434;2022-09-01T15:05:05;23.20;95.30
20479;DHT22;10398;52.490;13.434;2022-09-01T15:07:31;23.20;95.10
20479;DHT22;10398;52.490;13.434;2022-09-01T15:09:58;23.30;95.50
20479;DHT22;10398;52.490;13.434;2022-09-01T15:12:25;23.50;95.30
20479;DHT22;10398;52.490;13.434;2022-09-01T15:14:56;23.60;95.00
20479;DHT22;10398;52.490;13.434;2022-09-01T15:17:22;23.70;94.90
20479;DHT22;10398;52.490;13.434;2022-09-01T15:19:47;23.80;94.30
20479;DHT22;10398;52.490;13.434;2022-09-01T15:22:13;23.70;99.90
20479;DHT22;10398;52.490;13.434;2022-09-01T15:24:41;23.70;99.80
20479;DHT22;10398;52.490;13.434;2022-09-01T15:27:08;23.60;97.70
20479;DHT22;10398;52.490;13.434;2022-09-01T15:29:36;23.50;96.00
20479;DHT22;10398;52.490;13.434;2022-09-01T15:32:12;23.50;94.40
20479;DHT22;10398;52.490;13.434;2022-09-01T15:34:38;23.50;94.30
20479;DHT22;10398;52.490;13.434;2022-09-01T15:37:04;23.60;97.80
20479;DHT22;10398;52.490;13.434;2022-09-01T15:39:31;23.70;95.20
20479;DHT22;10398;52.490;13.434;2022-09-01T15:41:56;23.60;99.90
20479;DHT22;10398;52.490;13.434;2022-09-01T15:44:22;23.50;99.00
20479;DHT22;10398;52.490;13.434;2022-09-01T15:46:47;23.40;96.00
20479;DHT22;10398;52.490;13.434;2022-09-01T15:49:13;23.50;94.50
20479;DHT22;10398;52.490;13.434;2022-09-01T15:51:41;23.50;93.70
20479;DHT22;10398;52.490;13.434;2022-09-01T15:54:11;23.40;93.50
20479;DHT22;10398;52.490;13.434;2022-09-01T15:56:37;23.40;94.30
20479;DHT22;10398;52.490;13.434;2022-09-01T15:59:04;23.50;95.50
20479;DHT22;10398;52.490;13.434;2022-09-01T16:01:33;23.50;95.90
20479;DHT22;10398;52.490;13.434;2022-09-01T16:03:59;23.40;99.10
20479;DHT22;10398;52.490;13.434;2022-09-01T16:06:25;23.30;95.30
20479;DHT22;10398;52.490;13.434;2022-09-01T16:08:52;23.30;94.60
20479;DHT22;10398;52.490;13.434;2022-09-01T16:11:22;23.30;93.50
20479;DHT22;10398;52.490;13.434;2022-09-01T16:13:48;23.30;93.30
20479;DHT22;10398;52.490;13.434;2022-09-01T16:21:51;23.20;92.60
20479;DHT22;10398;52.490;13.434;2022-09-01T16:24:19;23.20;93.10
20479;DHT22;10398;52.490;13.434;2022-09-01T16:26:47;23.20;93.00
20479;DHT22;10398;52.490;13.434;2022-09-01T16:29:27;23.20;93.10
20479;DHT22;10398;52.490;13.434;2022-09-01T16:31:57;23.10;93.40
20479;DHT22;10398;52.490;13.434;2022-09-01T16:34:22;23.10;93.90
20479;DHT22;10398;52.490;13.434;2022-09-01T16:49:37;22.30;94.20
20479;DHT22;10398;52.490;13.434;2022-09-01T16:52:26;22.20;95.20
20479;DHT22;10398;52.490;13.434;2022-09-01T17:00:09;22.00;97.00
20479;DHT22;10398;52.490;13.434;2022-09-01T17:02:53;21.90;96.00
20479;DHT22;10398;52.490;13.434;2022-09-01T17:05:32;21.90;97.30